Time;durP1;ratioP1;P1;durP2;ratioP2;P2;SDS_P1;SDS_P2;PMS_P1;PMS_P2;Temp;Humidity;BMP_temperature;BMP_pressure;BME280_temperature;BME280_humidity;BME280_pressure;Samples;Min_cycle;Max_cycle;Signal;HPM_P1;HPM_P2
2021/06/14 00:00:28;;;;;;;5.32;1.98;;;19.50;99.90;;;18.92;77.24;100964.44;5088032;28;20391;-52
2021/06/14 00:02:54;;;;;;;3.92;1.80;;;19.50;99.90;;;18.97;77.18;100963.88;5087908;28;20031;-53
2021/06/14 00:05:43;;;;;;;2.35;1.90;;;19.50;99.90;;;18.96;77.72;100968.34;5088082;28;20031;-55
2021/06/14 00:08:19;;;;;;;5.22;2.10;;;19.60;99.90;;;18.96;77.25;100964.91;5088089;28;20055;-56
2021/06/14 00:10:49;;;;;;;2.20;1.67;;;19.50;99.90;;;19.01;77.10;100963.34;5088233;28;20429;-55
2021/06/14 00:13:16;;;;;;;2.05;1.40;;;19.50;99.90;;;19.14;76.43;100965.28;5087948;28;20036;-58
2021/06/14 00:15:44;;;;;;;3.08;1.92;;;19.60;99.90;;;19.26;75.25;100965.63;5088087;28;20138;-57
2021/06/14 00:18:10;;;;;;;4.28;1.75;;;19.70;99.90;;;19.22;75.57;100967.81;5069772;28;20063;-54
2021/06/14 00:20:38;;;;;;;2.65;2.15;;;19.70;99.90;;;19.13;75.75;100966.31;5088088;28;20079;-54
2021/06/14 00:23:09;;;;;;;2.28;1.48;;;19.70;99.90;;;19.08;76.05;100966.03;5087836;28;20039;-56
2021/06/14 00:25:36;;;;;;;2.55;2.00;;;19.60;99.90;;;19.15;75.96;100978.31;5070426;28;20463;-54
2021/06/14 00:28:03;;;;;;;2.35;2.15;;;19.70;99.90;;;19.14;75.82;100975.84;5087834;28;20116;-51
2021/06/14 00:30:42;;;;;;;4.05;2.20;;;19.70;99.90;;;19.18;76.04;100979.75;5103113;28;20043;-57
2021/06/14 00:33:10;;;;;;;2.55;1.60;;;19.70;99.90;;;19.15;75.80;100977.50;5088043;28;20513;-56
2021/06/14 00:35:37;;;;;;;2.10;1.90;;;19.70;99.90;;;19.06;76.50;100982.06;5087728;28;20032;-53
2021/06/14 00:38:04;;;;;;;2.65;1.83;;;19.60;99.90;;;18.98;76.99;100974.25;5087558;28;20416;-58
2021/06/14 00:40:31;;;;;;;2.33;2.13;;;19.50;99.90;;;19.00;76.58;100972.25;5087987;28;20040;-58
2021/06/14 00:42:58;;;;;;;3.97;2.03;;;19.50;99.90;;;19.04;75.97;100970.88;5087114;28;20123;-59
2021/06/14 00:45:31;;;;;;;2.95;2.00;;;19.60;99.90;;;19.06;75.89;100981.25;5087964;28;20418;-59
2021/06/14 00:47:58;;;;;;;4.35;1.85;;;19.60;99.90;;;19.05;74.75;100977.78;5069244;28;20032;-56
2021/06/14 00:50:59;;;;;;;2.78;1.13;;;19.60;99.90;;;19.21;71.75;100988.13;5087437;28;20461;-57
2021/06/14 00:53:29;;;;;;;5.50;1.75;;;19.70;99.90;;;19.18;73.54;100982.41;5087646;28;20483;-60
2021/06/14 00:55:57;;;;;;;3.15;1.40;;;19.60;99.90;;;19.16;73.60;100979.94;5087725;28;20032;-58
2021/06/14 00:58:24;;;;;;;4.75;1.50;;;19.70;99.90;;;19.15;72.93;100982.78;5087447;28;20033;-56
2021/06/14 01:00:50;;;;;;;4.78;1.20;;;19.70;99.90;;;19.22;70.97;100981.03;5087655;28;20031;-56
2021/06/14 01:03:17;;;;;;;1.40;1.08;;;19.70;99.90;;;19.34;70.06;100979.53;5087340;28;20145;-59
2021/06/14 01:06:00;;;;;;;3.00;0.90;;;19.80;99.90;;;19.44;66.62;100977.34;5087798;28;20114;-58
2021/06/14 01:08:36;;;;;;;2.28;1.30;;;19.90;99.90;;;19.61;66.96;100982.41;5087416;28;20365;-60
2021/06/14 01:11:33;;;;;;;1.65;0.70;;;20.00;99.90;;;19.52;67.35;100974.63;5087315;28;20039;-57
2021/06/14 01:14:11;;;;;;;3.08;1.13;;;20.00;99.90;;;19.49;66.90;100980.25;5087537;28;20394;-51
2021/06/14 01:17:04;;;;;;;5.10;0.73;;;20.00;99.90;;;19.57;63.78;100974.03;5087563;28;20197;-60
2021/06/14 01:19:42;;;;;;;4.07;0.80;;;20.00;99.90;;;19.58;62.20;100967.75;5087353;28;20115;-54
2021/06/14 01:22:51;;;;;;;5.15;0.80;;;20.00;99.90;;;19.61;61.38;100977.94;5069340;28;20054;-55
2021/06/14 01:25:54;;;;;;;2.40;0.60;;;20.10;99.90;;;19.62;61.21;100968.19;5087553;28;20126;-56
2021/06/14 01:28:22;;;;;;;4.97;0.90;;;20.10;99.90;;;19.62;62.05;100970.81;5087224;28;20040;-54
2021/06/14 01:30:51;;;;;;;4.47;0.90;;;20.10;99.90;;;19.58;62.40;100975.69;5087180;28;20055;-57
2021/06/14 01:33:24;;;;;;;1.85;0.77;;;20.10;99.90;;;19.51;63.52;100972.97;5087291;28;20024;-59
2021/06/14 01:36:06;;;;;;;1.83;0.75;;;20.00;99.90;;;19.40;64.22;100970.00;5087275;28;20162;-52
2021/06/14 01:38:33;;;;;;;2.78;1.10;;;20.00;99.90;;;19.38;64.18;100972.81;5087116;28;20032;-55
2021/06/14 01:41:06;;;;;;;1.45;0.73;;;19.90;99.90;;;19.39;63.69;100971.00;5087471;28;20032;-57
2021/06/14 01:43:36;;;;;;;1.60;0.80;;;19.90;99.90;;;19.40;63.70;100973.44;5087075;28;20052;-53
2021/06/14 01:46:07;;;;;;;2.15;0.88;;;19.90;99.90;;;19.36;62.79;100963.47;5086942;28;20036;-51
2021/06/14 01:48:36;;;;;;;2.15;0.70;;;19.90;99.90;;;19.32;63.58;100964.88;5086978;28;20473;-53
2021/06/14 01:51:03;;;;;;;3.33;0.80;;;19.90;99.90;;;19.36;60.56;100966.94;5086911;28;20421;-55
2021/06/14 01:53:30;;;;;;;1.92;0.70;;;19.90;99.60;;;19.44;59.01;100965.97;5068871;28;20453;-54
2021/06/14 01:55:58;;;;;;;4.93;0.70;;;19.90;98.30;;;19.46;58.11;100962.13;5072342;28;20538;-53
2021/06/14 01:58:24;;;;;;;2.65;0.70;;;20.00;97.40;;;19.55;57.58;100965.50;5072625;28;20055;-53
2021/06/14 02:00:52;;;;;;;3.97;0.70;;;20.00;96.40;;;19.45;56.64;100957.03;5072373;28;20396;-57
2021/06/14 02:03:19;;;;;;;1.00;0.60;;;19.90;95.00;;;19.47;56.34;100949.72;5090406;28;20548;-59
2021/06/14 02:05:48;;;;;;;5.75;0.50;;;20.00;94.70;;;19.44;55.84;100961.50;5072483;28;20142;-54
2021/06/14 02:08:17;;;;;;;1.58;0.50;;;19.90;94.30;;;19.41;56.69;100956.59;5090346;28;20434;-57
2021/06/14 02:10:44;;;;;;;3.88;0.88;;;19.90;95.10;;;19.43;56.76;100965.16;5090475;28;20111;-60
2021/06/14 02:13:12;;;;;;;1.50;0.50;;;19.90;95.20;;;19.33;57.02;100964.69;5072064;28;20051;-57
2021/06/14 02:15:38;;;;;;;7.22;0.60;;;19.90;95.00;;;19.36;57.34;100963.47;5090245;28;20069;-58
2021/06/14 02:18:06;;;;;;;5.65;0.70;;;19.90;95.20;;;19.35;58.03;100961.84;5090015;28;20446;-58
2021/06/14 02:20:32;;;;;;;2.38;0.82;;;19.90;95.80;;;19.34;58.08;100961.03;5090067;28;20411;-58
2021/06/14 02:22:58;;;;;;;5.05;0.75;;;19.90;95.90;;;19.22;58.72;100962.53;5090228;28;20028;-60
2021/06/14 02:25:25;;;;;;;3.78;0.45;;;19.80;96.10;;;19.11;58.68;100968.31;5090151;28;20075;-55
2021/06/14 02:27:51;;;;;;;3.70;0.93;;;19.70;96.00;;;19.07;58.06;100962.59;5090011;28;20036;-57
2021/06/14 02:30:23;;;;;;;3.65;0.57;;;19.60;95.60;;;18.99;57.52;100961.88;5089911;28;20114;-59
2021/06/14 02:32:50;;;;;;;2.17;0.50;;;19.60;95.10;;;18.98;56.89;100958.44;5089704;28;20097;-54
2021/06/14 02:35:16;;;;;;;3.90;0.73;;;19.50;94.30;;;18.92;56.79;100961.00;5090086;28;20058;-51
2021/06/14 02:37:53;;;;;;;3.63;0.60;;;19.40;94.00;;;18.86;56.17;100962.59;5071728;28;20036;-57
2021/06/14 02:42:57;;;;;;;4.38;1.23;;;19.40;93.60;;;18.83;56.60;100960.31;5300963;22;20064;-58
2021/06/14 02:45:27;;;;;;;1.95;0.63;;;19.40;93.80;;;18.76;56.74;100957.59;5089630;28;20036;-53
2021/06/14 02:47:54;;;;;;;4.88;0.70;;;19.30;93.80;;;18.76;57.50;100948.84;5071457;28;20463;-60
2021/06/14 02:50:22;;;;;;;1.10;0.65;;;19.30;94.40;;;18.74;57.88;100949.03;5089209;28;20367;-58
2021/06/14 02:52:51;;;;;;;5.10;0.80;;;19.30;94.80;;;18.66;58.60;100945.69;5071175;28;20032;-59
2021/06/14 02:55:28;;;;;;;4.05;0.85;;;19.20;95.00;;;18.61;57.64;100954.16;5089584;28;20032;-54
2021/06/14 02:57:59;;;;;;;3.90;0.57;;;19.20;94.40;;;18.59;58.17;100945.59;5089409;28;20059;-59
2021/06/14 03:00:29;;;;;;;4.20;0.50;;;19.10;95.10;;;18.75;56.81;100950.69;5089198;28;20040;-58
2021/06/14 03:03:02;;;;;;;4.60;0.63;;;19.20;94.00;;;18.76;56.88;100943.59;5054432;28;20514;-58
2021/06/14 03:05:30;;;;;;;7.22;0.88;;;19.30;94.00;;;18.70;57.50;100936.41;5088922;28;20043;-58
2021/06/14 03:08:03;;;;;;;2.92;0.52;;;19.20;94.20;;;18.68;57.81;100938.41;5089205;28;20101;-60
2021/06/14 03:10:33;;;;;;;3.90;0.77;;;19.20;94.60;;;18.57;57.89;100937.03;5088918;28;20039;-57
2021/06/14 03:13:04;;;;;;;1.58;0.50;;;19.20;94.60;;;18.62;57.53;100939.16;5088855;28;20035;-59
2021/06/14 03:15:33;;;;;;;3.55;0.90;;;19.10;94.30;;;18.58;57.99;100939.47;5070437;28;20032;-56
2021/06/14 03:18:00;;;;;;;2.20;0.45;;;19.10;94.50;;;18.65;57.99;100929.03;5070327;28;20020;-58
2021/06/14 03:20:28;;;;;;;3.90;0.57;;;19.20;94.80;;;18.64;57.64;100931.88;5070745;28;20086;-60
2021/06/14 03:22:55;;;;;;;7.38;0.80;;;19.20;94.20;;;18.52;58.49;100931.50;5088807;28;20090;-60
2021/06/14 03:25:21;;;;;;;2.00;0.35;;;19.20;94.80;;;18.54;57.49;100932.13;5088707;28;20032;-58
2021/06/14 03:27:49;;;;;;;2.25;0.93;;;19.20;94.00;;;18.55;56.59;100928.47;5070437;28;20044;-59
2021/06/14 03:30:20;;;;;;;2.70;0.40;;;19.10;92.90;;;18.60;55.54;100930.56;5088507;28;20043;-58
2021/06/14 03:32:49;;;;;;;3.47;0.40;;;19.20;92.30;;;18.55;56.15;100941.66;5088480;28;20031;-58
2021/06/14 03:35:19;;;;;;;2.30;0.43;;;19.20;92.50;;;18.60;55.76;100931.41;5088776;28;20113;-57
2021/06/14 03:37:46;;;;;;;2.95;0.70;;;19.20;92.00;;;18.58;56.05;100938.66;5088498;28;20031;-59
2021/06/14 03:40:14;;;;;;;6.25;0.40;;;19.20;92.20;;;18.54;56.04;100938.22;5088516;28;20036;-59
2021/06/14 03:42:40;;;;;;;4.65;0.75;;;19.20;92.10;;;18.48;55.88;100943.41;5070078;28;20418;-57
2021/06/14 03:45:08;;;;;;;4.43;0.55;;;19.10;91.80;;;18.45;55.58;100941.13;5088238;28;20034;-58
2021/06/14 03:47:34;;;;;;;4.53;0.73;;;19.10;91.70;;;18.47;55.40;100941.78;5088585;28;20072;-59
2021/06/14 03:50:00;;;;;;;2.63;0.40;;;19.10;91.50;;;18.53;55.85;100933.13;5088397;28;20370;-61
2021/06/14 03:52:27;;;;;;;4.22;0.57;;;19.20;92.00;;;18.62;55.55;100939.16;5088476;28;20098;-56
2021/06/14 03:54:53;;;;;;;4.03;0.70;;;19.30;91.60;;;18.57;55.68;100937.03;5087824;28;20027;-60
2021/06/14 03:57:18;;;;;;;1.70;0.60;;;19.30;91.50;;;18.57;55.93;100934.38;5088226;28;20372;-57
2021/06/14 03:59:44;;;;;;;3.42;0.60;;;19.20;91.60;;;18.72;55.68;100926.47;5088255;28;20128;-59
2021/06/14 04:02:10;;;;;;;1.92;0.47;;;19.40;91.70;;;18.82;55.43;100935.72;5088035;28;20032;-59
2021/06/14 04:04:45;;;;;;;4.05;0.70;;;19.50;91.40;;;18.94;54.57;100940.50;5088254;28;20066;-59
2021/06/14 04:07:11;;;;;;;3.72;0.50;;;19.70;90.90;;;19.08;53.52;100950.19;5088394;28;20039;-59
2021/06/14 04:09:37;;;;;;;3.92;0.47;;;19.90;89.20;;;19.42;53.45;100934.44;5087745;28;20028;-59
2021/06/14 04:12:05;;;;;;;3.08;0.80;;;20.10;89.70;;;20.59;51.16;100934.59;5088167;28;20055;-58
2021/06/14 04:14:31;;;;;;;5.10;0.70;;;21.50;85.90;;;20.97;49.59;100942.00;5087774;28;20457;-59
2021/06/14 04:16:57;;;;;;;4.72;0.65;;;22.30;80.60;;;21.43;48.98;100934.13;5087595;28;20032;-59
2021/06/14 04:19:23;;;;;;;2.55;0.50;;;22.60;79.30;;;21.23;48.65;100946.56;5087814;28;20060;-59
2021/06/14 04:21:49;;;;;;;6.75;0.60;;;22.70;75.70;;;21.33;48.07;100939.00;5087789;28;20531;-56
2021/06/14 04:24:15;;;;;;;5.10;0.52;;;22.80;74.40;;;21.24;48.10;100940.25;5087569;28;20040;-59
2021/06/14 04:26:41;;;;;;;4.20;0.50;;;22.60;73.80;;;21.39;47.65;100938.19;5087652;28;20044;-59
2021/06/14 04:29:07;;;;;;;2.30;0.50;;;22.70;73.70;;;21.57;46.84;100942.91;5087716;28;20063;-55
2021/06/14 04:31:33;;;;;;;1.65;0.55;;;23.10;70.80;;;21.04;47.91;100942.84;5088031;28;20059;-59
2021/06/14 04:33:59;;;;;;;2.97;0.45;;;22.50;71.90;;;21.24;47.06;100949.03;5087750;28;20039;-59
2021/06/14 04:36:25;;;;;;;5.60;0.50;;;22.50;71.60;;;21.76;45.46;100950.81;5087688;28;20037;-56
2021/06/14 04:38:51;;;;;;;5.97;0.85;;;23.20;68.20;;;21.20;46.88;100942.47;5087787;28;20082;-56
2021/06/14 04:41:17;;;;;;;6.00;1.08;;;22.70;69.00;;;22.07;45.38;100942.22;5087837;28;20051;-56
2021/06/14 04:43:43;;;;;;;1.58;0.40;;;23.20;68.50;;;23.72;42.14;100946.56;5087451;28;20059;-56
2021/06/14 04:46:09;;;;;;;3.35;0.60;;;25.10;64.00;;;24.76;40.72;100945.59;5087569;28;20370;-60
2021/06/14 04:48:35;;;;;;;7.82;0.50;;;26.70;60.30;;;25.02;39.18;100949.78;5069119;28;20070;-56
2021/06/14 04:51:01;;;;;;;2.78;0.50;;;27.50;56.70;;;23.91;40.94;100947.41;5087675;28;20043;-59
2021/06/14 04:53:27;;;;;;;2.38;0.40;;;26.60;56.10;;;24.97;38.85;100946.16;5069333;28;20340;-57
2021/06/14 04:55:53;;;;;;;1.80;0.50;;;26.90;55.60;;;26.18;36.77;100947.38;5087590;28;20166;-60
2021/06/14 04:58:20;;;;;;;2.15;0.30;;;28.40;52.40;;;26.86;35.00;100954.59;5087562;28;20097;-59
2021/06/14 05:00:46;;;;;;;3.97;0.38;;;29.50;49.80;;;27.23;34.41;100950.44;5087550;28;20036;-57
2021/06/14 05:03:12;;;;;;;3.25;0.30;;;29.90;49.30;;;27.60;33.90;100949.97;5087476;28;20047;-60
2021/06/14 05:05:38;;;;;;;3.17;0.32;;;30.50;47.50;;;27.87;33.40;100948.22;5087222;28;20478;-58
2021/06/14 05:08:05;;;;;;;2.67;0.40;;;30.90;46.70;;;27.21;33.69;100962.44;5087293;28;20456;-59
2021/06/14 05:10:31;;;;;;;3.33;0.50;;;30.80;44.90;;;27.77;33.41;100945.41;5087292;28;20032;-57
2021/06/14 05:12:57;;;;;;;2.03;0.40;;;30.60;46.40;;;28.12;32.74;100947.72;5087403;28;20024;-58
2021/06/14 05:15:25;;;;;;;0.95;0.35;;;31.20;45.20;;;28.31;32.32;100949.06;5087284;28;20348;-62
2021/06/14 05:17:50;;;;;;;2.75;0.47;;;31.80;44.10;;;28.24;32.57;100955.69;5068951;28;20040;-59
2021/06/14 05:20:17;;;;;;;3.17;0.40;;;31.80;44.10;;;28.60;31.24;100949.66;5087216;28;20027;-59
2021/06/14 05:22:44;;;;;;;3.63;0.30;;;31.90;43.70;;;28.55;31.37;100952.28;5087169;28;20437;-62
2021/06/14 05:25:13;;;;;;;1.10;0.32;;;31.90;42.90;;;29.09;30.93;100948.81;5087342;28;20036;-60
2021/06/14 05:27:39;;;;;;;6.65;0.45;;;32.30;42.60;;;29.53;30.54;100949.44;5087859;28;20052;-61
2021/06/14 05:30:05;;;;;;;7.15;0.70;;;33.10;41.90;;;29.88;29.76;100946.13;5091017;28;20380;-59
2021/06/14 05:32:32;;;;;;;3.13;0.43;;;33.70;40.80;;;30.10;29.69;100954.88;5072920;28;20094;-58
2021/06/14 05:34:59;;;;;;;5.63;0.77;;;34.00;40.20;;;29.91;29.29;100959.84;5072239;28;20028;-58
2021/06/14 05:37:25;;;;;;;2.80;0.40;;;33.90;40.20;;;29.18;30.62;100960.69;5072511;28;20060;-59
2021/06/14 05:39:51;;;;;;;2.58;0.50;;;33.10;41.80;;;29.59;30.76;100968.00;5090621;28;20032;-59
2021/06/14 05:42:17;;;;;;;3.17;0.85;;;33.40;41.10;;;30.23;29.86;100964.34;5090389;28;20343;-56
2021/06/14 05:44:43;;;;;;;4.03;0.30;;;34.20;40.10;;;30.41;29.25;100965.72;5072273;28;20039;-56
2021/06/14 05:47:09;;;;;;;3.42;0.40;;;34.60;39.30;;;30.53;29.10;100969.00;5090887;28;20067;-60
2021/06/14 05:49:35;;;;;;;4.30;0.60;;;34.50;39.50;;;30.82;28.75;100969.34;5090269;28;20094;-58
2021/06/14 05:52:01;;;;;;;6.60;0.50;;;34.90;39.50;;;31.24;27.94;100972.63;5091215;28;20371;-59
2021/06/14 05:54:27;;;;;;;4.43;0.80;;;35.60;38.40;;;31.43;27.99;100969.41;5090316;28;20082;-58
2021/06/14 05:56:53;;;;;;;3.90;0.30;;;35.80;38.40;;;31.28;27.50;100973.72;5090832;28;20067;-55
2021/06/14 05:59:18;;;;;;;4.20;0.40;;;35.80;37.70;;;30.74;28.32;100980.63;5090196;28;20043;-58
2021/06/14 06:01:44;;;;;;;4.00;0.68;;;35.30;38.00;;;30.83;28.22;100974.47;5090325;28;20372;-56
2021/06/14 06:04:10;;;;;;;3.03;0.30;;;35.10;38.10;;;31.40;27.68;100965.38;5090373;28;20032;-55
2021/06/14 06:06:36;;;;;;;2.15;0.35;;;35.70;37.50;;;31.26;27.35;100975.88;5090372;28;20439;-57
2021/06/14 06:09:03;;;;;;;1.23;0.40;;;35.80;36.50;;;31.22;27.61;100974.78;5090211;28;20143;-56
2021/06/14 06:11:29;;;;;;;0.98;0.40;;;35.70;37.40;;;31.28;27.79;100972.91;5090221;28;20043;-56
2021/06/14 06:13:55;;;;;;;3.83;0.40;;;35.70;37.20;;;31.26;27.86;100975.06;5090466;28;20105;-56
2021/06/14 06:16:21;;;;;;;2.92;0.40;;;35.60;37.40;;;30.88;28.20;100974.47;5072017;28;20550;-57
2021/06/14 06:18:47;;;;;;;1.45;0.30;;;35.50;37.40;;;30.67;27.86;100968.28;5089792;28;20032;-55
2021/06/14 06:21:13;;;;;;;4.65;0.50;;;35.30;36.80;;;30.58;28.05;100974.44;5090007;28;20063;-57
2021/06/14 06:23:38;;;;;;;8.43;0.75;;;35.00;37.50;;;30.89;28.11;100969.91;5090021;28;20118;-57
2021/06/14 06:26:05;;;;;;;3.42;0.38;;;35.10;37.80;;;30.81;28.06;100965.84;5089953;28;20119;-56
2021/06/14 06:28:31;;;;;;;2.78;0.30;;;35.20;37.20;;;30.72;27.93;100964.75;5089767;28;20540;-59
2021/06/14 06:30:57;;;;;;;2.17;0.30;;;35.10;37.80;;;31.30;27.48;100970.75;5090033;28;20036;-56
2021/06/14 06:33:23;;;;;;;3.15;0.40;;;35.80;36.90;;;30.87;28.41;100966.66;5089580;28;20431;-59
2021/06/14 06:35:49;;;;;;;6.07;0.47;;;35.60;36.90;;;30.77;28.42;100969.34;5089770;28;20032;-58
2021/06/14 06:38:16;;;;;;;1.40;0.38;;;35.30;37.20;;;31.10;28.03;100965.34;5089635;28;20055;-57
2021/06/14 06:40:42;;;;;;;2.42;0.40;;;35.30;37.50;;;31.48;27.42;100964.81;5054007;28;20484;-57
2021/06/14 06:43:08;;;;;;;3.08;0.40;;;35.90;37.10;;;31.45;27.94;100972.63;5087198;28;20467;-58
2021/06/14 06:45:34;;;;;;;2.53;0.30;;;36.10;36.70;;;31.81;27.28;100971.50;5089785;28;20115;-60
2021/06/14 06:48:01;;;;;;;2.25;0.68;;;36.50;36.70;;;32.19;27.03;100971.91;5070907;28;20080;-62
2021/06/14 06:50:27;;;;;;;2.33;0.30;;;36.70;36.40;;;31.78;27.12;100973.94;5054832;28;20146;-62
2021/06/14 06:52:53;;;;;;;2.47;0.30;;;36.60;36.10;;;31.87;27.48;100970.41;5089623;28;20107;-62
2021/06/14 06:55:19;;;;;;;3.17;0.57;;;36.60;36.40;;;31.59;27.54;100973.69;5071029;28;20028;-56
2021/06/14 06:57:45;;;;;;;1.65;0.40;;;36.30;36.80;;;31.69;27.61;100981.75;5089286;28;20032;-63
2021/06/14 07:00:17;;;;;;;1.45;0.40;;;36.30;36.80;;;31.85;27.33;100972.56;5089062;28;20035;-57
2021/06/14 07:02:43;;;;;;;2.05;0.70;;;36.40;36.70;;;31.87;27.48;100975.81;5071253;28;20122;-56
2021/06/14 07:05:10;;;;;;;2.50;0.40;;;36.50;36.80;;;31.74;27.24;100973.69;5088997;28;20208;-58
2021/06/14 07:07:36;;;;;;;5.55;0.50;;;36.40;36.60;;;31.07;27.94;100964.00;5088978;28;20020;-62
2021/06/14 07:10:06;;;;;;;3.42;0.60;;;35.40;37.80;;;30.05;29.91;100970.97;5089431;28;20038;-59
2021/06/14 07:12:33;;;;;;;3.28;0.50;;;33.10;40.80;;;28.63;32.17;100975.16;5070761;28;20028;-60
2021/06/14 07:15:00;;;;;;;1.45;0.40;;;31.00;43.60;;;27.88;33.57;100973.94;5089045;28;20127;-56
2021/06/14 07:17:26;;;;;;;4.25;0.85;;;29.60;45.60;;;27.28;34.34;100977.28;5089245;28;20372;-64
2021/06/14 07:19:53;;;;;;;1.80;0.45;;;28.70;46.60;;;26.40;36.01;100975.13;5089305;28;20052;-57
2021/06/14 07:22:19;;;;;;;4.47;0.68;;;27.90;48.10;;;26.46;35.72;100974.16;5089508;28;20024;-62
2021/06/14 07:24:45;;;;;;;4.97;0.55;;;27.50;48.50;;;26.56;36.08;100968.19;5089354;28;20090;-59
2021/06/14 07:27:11;;;;;;;3.72;0.50;;;27.40;49.60;;;26.54;36.47;100967.59;5089248;28;20574;-60
2021/06/14 07:29:37;;;;;;;6.32;0.45;;;27.30;49.90;;;26.73;36.09;100971.72;5089360;28;20435;-61
2021/06/14 07:32:04;;;;;;;5.82;0.60;;;27.50;49.70;;;26.71;36.23;100969.28;5089384;28;20109;-62
2021/06/14 07:34:30;;;;;;;6.75;0.95;;;27.50;50.00;;;26.64;36.66;100979.31;5088904;28;20032;-62
2021/06/14 07:36:57;;;;;;;4.60;0.60;;;27.50;50.40;;;26.58;37.05;100977.59;5089085;28;20577;-62
2021/06/14 07:39:24;;;;;;;3.00;0.80;;;27.40;50.60;;;26.74;36.68;100978.69;5088838;28;20424;-65
2021/06/14 07:41:50;;;;;;;5.82;0.40;;;27.50;50.40;;;26.98;36.32;100974.88;5070553;28;20166;-61
2021/06/14 07:44:16;;;;;;;3.08;0.60;;;27.70;50.40;;;26.92;36.79;100980.38;5088315;28;20376;-64
2021/06/14 07:46:42;;;;;;;4.45;0.65;;;27.70;50.70;;;26.80;36.33;100971.59;5088843;28;20280;-62
2021/06/14 07:49:08;;;;;;;1.83;0.50;;;27.60;50.50;;;26.95;36.31;100982.53;5089251;28;20081;-62
2021/06/14 07:51:34;;;;;;;4.95;0.98;;;27.70;50.50;;;27.02;36.93;100977.88;5087998;28;20036;-57
2021/06/14 07:54:00;;;;;;;1.77;0.50;;;27.80;51.00;;;26.68;36.99;100972.44;5089193;28;20043;-61
2021/06/14 07:56:26;;;;;;;2.83;0.47;;;27.70;50.30;;;26.75;36.89;100965.09;5088487;28;20028;-58
2021/06/14 07:58:52;;;;;;;1.67;0.40;;;27.60;50.70;;;26.95;36.94;100972.66;5088612;28;20097;-58
2021/06/14 08:01:18;;;;;;;4.50;0.60;;;27.80;51.00;;;27.35;36.66;100969.91;5088782;28;20031;-58
2021/06/14 08:03:47;;;;;;;1.92;0.57;;;28.10;50.80;;;27.35;36.48;100974.44;5088660;28;20127;-57
2021/06/14 08:06:13;;;;;;;5.65;0.77;;;28.20;50.60;;;27.47;36.74;100977.03;5088806;28;20035;-59
2021/06/14 08:08:40;;;;;;;4.28;0.40;;;28.30;50.90;;;27.31;36.63;100968.78;5088540;28;20428;-58
2021/06/14 08:11:08;;;;;;;1.13;0.40;;;28.20;50.80;;;27.24;36.37;100972.66;5088186;28;20032;-59
2021/06/14 08:13:34;;;;;;;2.20;0.63;;;28.10;50.80;;;27.29;36.69;100976.22;5070161;28;20036;-56
2021/06/14 08:16:00;;;;;;;3.08;0.73;;;28.00;51.20;;;27.32;36.69;100970.41;5088726;28;20046;-62
2021/06/14 08:21:23;;;;;;;4.38;0.82;;;28.20;51.20;;;27.89;35.84;100970.19;5089006;28;20042;-59
2021/06/14 08:26:54;;;;;;;1.83;0.60;;;28.50;51.00;;;28.14;35.79;100952.84;5005904;28;20052;-58
2021/06/14 08:29:20;;;;;;;4.60;0.85;;;28.70;50.80;;;28.11;36.12;100954.16;5005702;28;20045;-60
2021/06/14 08:31:46;;;;;;;1.48;0.50;;;28.70;51.20;;;27.72;36.56;100958.72;5005700;28;20038;-60
2021/06/14 08:34:13;;;;;;;3.05;0.60;;;28.50;51.20;;;27.73;36.69;100955.78;5005625;28;20065;-61
2021/06/14 08:36:41;;;;;;;2.70;1.02;;;28.50;51.70;;;27.54;36.76;100964.28;4989231;28;20383;-59
2021/06/14 08:39:11;;;;;;;2.67;0.60;;;28.40;51.30;;;27.53;37.00;100960.81;5005691;28;20529;-58
2021/06/14 08:41:42;;;;;;;1.80;0.60;;;28.30;51.80;;;27.31;36.88;100960.75;5005845;28;20042;-54
2021/06/14 08:44:10;;;;;;;3.97;0.50;;;28.20;51.80;;;27.04;37.79;100954.41;4989004;28;20054;-55
2021/06/14 08:46:36;;;;;;;2.20;0.40;;;27.80;52.10;;;27.02;37.68;100959.16;4990952;28;20050;-60
2021/06/14 08:49:03;;;;;;;5.13;0.60;;;27.80;52.30;;;26.98;37.64;100956.16;4986143;28;20027;-56
2021/06/14 08:51:29;;;;;;;3.30;0.73;;;27.80;52.20;;;27.41;37.02;100946.72;4969832;28;20593;-56
2021/06/14 08:53:56;;;;;;;5.13;0.75;;;27.90;52.20;;;27.79;36.32;100948.66;4985994;28;20497;-57
2021/06/14 08:56:26;;;;;;;7.70;0.98;;;28.30;51.90;;;28.09;36.29;100940.19;4985844;28;20026;-58
2021/06/14 08:58:54;;;;;;;4.00;0.90;;;28.40;51.90;;;28.37;35.31;100933.84;5068837;28;20051;-57
2021/06/14 09:01:20;;;;;;;4.57;0.60;;;28.70;51.40;;;28.00;35.82;100939.81;5085062;28;20465;-56
2021/06/14 09:03:46;;;;;;;5.68;0.60;;;28.50;51.80;;;27.76;36.47;100933.06;5090235;28;20501;-55
2021/06/14 09:06:12;;;;;;;5.22;0.52;;;28.30;51.80;;;27.92;36.14;100926.84;5092170;28;20028;-52
2021/06/14 09:08:38;;;;;;;2.28;0.70;;;28.40;51.70;;;27.93;36.07;100933.81;5092086;28;20032;-59
2021/06/14 09:11:10;;;;;;;9.68;1.13;;;28.40;51.60;;;28.01;36.00;100922.69;5092178;28;20410;-60
2021/06/14 09:13:37;;;;;;;2.95;0.65;;;28.40;51.80;;;28.34;35.20;100923.66;5091855;28;20111;-56
2021/06/14 09:16:08;;;;;;;1.90;0.73;;;28.70;51.50;;;28.13;36.20;100929.78;5091681;28;20051;-58
2021/06/14 09:18:36;;;;;;;4.40;1.10;;;28.60;52.10;;;28.03;36.33;100928.59;5091969;28;20563;-57
2021/06/14 09:21:06;;;;;;;7.25;0.88;;;28.50;52.00;;;27.75;36.91;100934.94;5090696;28;20440;-59
2021/06/14 09:23:48;;;;;;;6.55;0.90;;;28.30;52.30;;;28.03;36.06;100931.28;5087711;28;20131;-59
2021/06/14 09:26:33;;;;;;;3.90;0.80;;;28.40;51.90;;;27.79;35.22;100932.59;5091654;28;20055;-60
2021/06/14 09:29:08;;;;;;;3.08;0.90;;;28.30;51.20;;;27.99;35.76;100927.47;5092223;28;20125;-60
2021/06/14 09:31:55;;;;;;;3.45;0.70;;;28.20;51.50;;;27.87;36.62;100923.31;5091743;28;20040;-59
2021/06/14 09:34:37;;;;;;;5.75;0.50;;;28.30;52.30;;;27.75;36.37;100920.75;5091933;28;20069;-60
2021/06/14 09:37:07;;;;;;;7.47;0.77;;;28.10;52.10;;;27.75;36.43;100921.56;5091898;28;20045;-60
2021/06/14 09:39:44;;;;;;;4.72;0.80;;;28.10;52.40;;;27.86;36.84;100917.16;5091589;28;20034;-54
2021/06/14 09:42:21;;;;;;;4.00;0.82;;;28.20;52.80;;;28.19;36.01;100918.09;5091523;28;20124;-53
2021/06/14 09:44:51;;;;;;;7.28;0.70;;;28.50;52.20;;;28.42;35.51;100915.16;5091751;28;20036;-58
2021/06/14 09:47:19;;;;;;;6.68;1.30;;;28.70;51.70;;;28.31;35.62;100913.44;5091625;28;20083;-59
2021/06/14 09:50:01;;;;;;;2.15;0.70;;;28.70;52.20;;;28.04;35.29;100918.69;5091163;28;20040;-54
2021/06/14 09:52:28;;;;;;;2.28;0.80;;;28.50;51.30;;;27.61;36.19;100914.13;5091429;28;20119;-58
2021/06/14 09:55:09;;;;;;;5.53;0.68;;;28.20;51.60;;;28.19;35.86;100915.41;5091389;28;20128;-54
2021/06/14 09:57:35;;;;;;;4.72;0.90;;;28.40;52.20;;;28.92;34.62;100912.19;5072819;28;20517;-54
2021/06/14 10:00:16;;;;;;;1.98;0.60;;;29.00;51.70;;;29.29;34.67;100908.72;5091244;28;20035;-60
2021/06/14 10:02:43;;;;;;;3.47;0.70;;;29.50;51.40;;;29.29;34.24;100898.81;5091043;28;20486;-56
2021/06/14 10:05:19;;;;;;;4.75;0.75;;;29.70;50.80;;;28.23;35.12;100900.47;5091127;28;20115;-59
2021/06/14 10:07:54;;;;;;;2.60;0.75;;;29.00;50.20;;;28.03;36.30;100893.78;5090981;28;20390;-58
2021/06/14 10:10:28;;;;;;;1.67;0.50;;;28.60;51.80;;;28.28;36.11;100898.66;5090871;28;20036;-60
2021/06/14 10:12:58;;;;;;;2.53;0.80;;;28.50;52.30;;;28.57;35.70;100893.06;5090901;28;20039;-57
2021/06/14 10:15:41;;;;;;;2.95;0.90;;;28.80;52.30;;;28.43;35.51;100887.28;5089591;28;20028;-57
2021/06/14 10:18:11;;;;;;;5.00;0.90;;;28.70;51.80;;;28.85;34.78;100883.94;5090635;28;20036;-57
2021/06/14 10:20:38;;;;;;;1.05;0.50;;;29.00;51.60;;;29.22;34.60;100875.94;5090853;28;20081;-62
2021/06/14 10:23:05;;;;;;;2.70;0.80;;;29.40;51.60;;;29.08;34.87;100874.75;5072418;28;20040;-58
2021/06/14 10:25:33;;;;;;;3.03;0.90;;;29.40;51.40;;;28.90;34.14;100875.94;5089083;28;20036;-60
2021/06/14 10:28:01;;;;;;;2.92;0.82;;;29.40;51.00;;;28.59;34.55;100872.97;5090631;28;20028;-56